Time;durP1;ratioP1;P1;durP2;ratioP2;P2;SDS_P1;SDS_P2;PMS_P1;PMS_P2;Temp;Humidity;BMP_temperature;BMP_pressure;BME280_temperature;BME280_humidity;BME280_pressure;Samples;Min_cycle;Max_cycle;Signal;HPM_P1;HPM_P2
2022/08/06 00:01:50;;;;;;;5.37;4.87;;;19.00;99.90;;;;;;5007956;28;20416;-72
2022/08/06 00:04:16;;;;;;;5.60;4.63;;;19.00;99.90;;;;;;4989626;28;20482;-72
2022/08/06 00:06:42;;;;;;;6.00;4.70;;;18.90;99.90;;;;;;4989683;28;20428;-72
2022/08/06 00:09:08;;;;;;;5.13;4.40;;;18.90;99.90;;;;;;5012890;28;20295;-72
2022/08/06 00:11:33;;;;;;;6.43;4.93;;;18.90;99.90;;;;;;5014457;28;20169;-74
2022/08/06 00:13:59;;;;;;;4.67;3.40;;;18.90;99.90;;;;;;4996833;28;20192;-75
2022/08/06 00:16:25;;;;;;;5.87;3.60;;;18.90;99.90;;;;;;5014208;28;20678;-74
2022/08/06 00:18:51;;;;;;;7.43;4.30;;;18.90;99.90;;;;;;5014429;28;20677;-74
2022/08/06 00:21:17;;;;;;;15.17;4.47;;;18.90;99.90;;;;;;4997300;28;20467;-74
2022/08/06 00:23:43;;;;;;;6.10;3.77;;;18.80;99.90;;;;;;5014319;28;20267;-74
2022/08/06 00:26:08;;;;;;;7.90;4.10;;;18.80;99.90;;;;;;4996674;28;20445;-75
2022/08/06 00:28:34;;;;;;;6.77;4.40;;;18.80;99.90;;;;;;4996680;28;20241;-74
2022/08/06 00:31:01;;;;;;;4.70;3.70;;;18.80;99.90;;;;;;4996598;28;20187;-75
2022/08/06 00:33:27;;;;;;;6.83;4.33;;;18.80;99.90;;;;;;4996682;28;20196;-75
2022/08/06 00:35:52;;;;;;;4.50;4.10;;;18.90;99.90;;;;;;4996996;28;20432;-75
2022/08/06 00:38:18;;;;;;;6.90;4.50;;;18.80;99.90;;;;;;4997140;28;21014;-75
2022/08/06 00:40:44;;;;;;;6.17;4.50;;;18.80;99.90;;;;;;5014714;28;20208;-74
2022/08/06 00:43:09;;;;;;;7.40;5.00;;;18.80;99.90;;;;;;5014574;28;20272;-74
2022/08/06 00:45:36;;;;;;;5.97;4.47;;;18.80;99.90;;;;;;5014452;28;20709;-75
2022/08/06 00:48:01;;;;;;;10.37;4.00;;;18.70;99.90;;;;;;5014582;28;20177;-75
2022/08/06 00:50:27;;;;;;;7.53;4.63;;;18.70;99.90;;;;;;5014508;28;20493;-75
2022/08/06 00:52:53;;;;;;;5.37;4.10;;;18.80;99.90;;;;;;5015362;28;20187;-75
2022/08/06 00:55:19;;;;;;;5.13;4.30;;;18.70;99.90;;;;;;5014610;28;20526;-75
2022/08/06 00:57:45;;;;;;;4.80;4.30;;;18.70;99.90;;;;;;4996824;28;20511;-74
2022/08/06 01:00:12;;;;;;;4.63;3.90;;;18.60;99.90;;;;;;4996588;28;20464;-74
2022/08/06 01:02:38;;;;;;;4.43;3.80;;;18.60;99.90;;;;;;4996857;28;20436;-74
2022/08/06 01:05:04;;;;;;;4.07;3.77;;;18.60;99.90;;;;;;5014653;28;20472;-75
2022/08/06 01:07:30;;;;;;;5.33;4.00;;;18.60;99.90;;;;;;4980244;28;20434;-74
2022/08/06 01:09:55;;;;;;;5.90;4.30;;;18.60;99.90;;;;;;5013959;28;20450;-73
2022/08/06 01:12:21;;;;;;;7.30;4.17;;;18.60;99.90;;;;;;4996165;28;20201;-73
2022/08/06 01:14:47;;;;;;;7.33;4.53;;;18.50;99.90;;;;;;4997071;28;20270;-73
2022/08/06 01:17:38;;;;;;;6.70;3.73;;;18.50;99.90;;;;;;4996474;28;20902;-74
2022/08/06 01:20:14;;;;;;;5.30;3.93;;;18.50;99.90;;;;;;5010847;28;20209;-74
2022/08/06 01:23:05;;;;;;;4.33;3.90;;;18.50;99.90;;;;;;4992726;28;20465;-74
2022/08/06 01:25:57;;;;;;;5.60;4.70;;;18.50;99.90;;;;;;4992507;28;20478;-74
2022/08/06 01:28:45;;;;;;;8.80;4.40;;;18.50;99.90;;;;;;5010614;28;21030;-74
2022/08/06 01:31:17;;;;;;;4.90;3.80;;;18.40;99.90;;;;;;5010377;28;20415;-76
2022/08/06 01:33:57;;;;;;;4.67;3.20;;;18.50;99.90;;;;;;5010463;28;20447;-74
2022/08/06 01:36:40;;;;;;;4.37;3.70;;;18.40;99.90;;;;;;4993587;28;20775;-75
2022/08/06 01:39:06;;;;;;;5.73;3.93;;;18.40;99.90;;;;;;4992329;28;21269;-74
2022/08/06 01:41:45;;;;;;;9.67;4.03;;;18.40;99.90;;;;;;4992393;28;20510;-74
2022/08/06 01:44:14;;;;;;;4.77;3.40;;;18.40;99.90;;;;;;5010068;28;20463;-74
2022/08/06 01:46:44;;;;;;;3.10;2.57;;;18.30;99.90;;;;;;5009959;28;20428;-74
2022/08/06 01:49:12;;;;;;;4.13;2.80;;;18.40;99.90;;;;;;5010263;28;20454;-75
2022/08/06 01:51:40;;;;;;;3.90;2.80;;;18.40;99.90;;;;;;4992346;28;20431;-74
2022/08/06 01:54:08;;;;;;;4.00;2.43;;;18.40;99.90;;;;;;5010758;28;20445;-73
2022/08/06 01:56:38;;;;;;;4.00;2.30;;;18.40;99.90;;;;;;5010213;28;20432;-74
2022/08/06 01:59:06;;;;;;;3.00;2.10;;;18.30;99.90;;;;;;4992505;28;20443;-74
2022/08/06 02:01:35;;;;;;;3.70;3.00;;;18.30;99.90;;;;;;5009739;28;20455;-75
2022/08/06 02:04:03;;;;;;;7.07;2.20;;;18.30;99.90;;;;;;4992796;28;20464;-75
2022/08/06 02:06:34;;;;;;;4.57;3.10;;;18.30;99.90;;;;;;5009862;28;20446;-74
2022/08/06 02:09:04;;;;;;;4.80;2.83;;;18.20;99.90;;;;;;5010145;28;21236;-74
2022/08/06 02:11:32;;;;;;;3.10;2.80;;;18.20;99.90;;;;;;5010167;28;20928;-74
2022/08/06 02:13:59;;;;;;;3.40;2.67;;;18.20;99.90;;;;;;4992349;28;20430;-74
2022/08/06 02:16:29;;;;;;;3.57;2.60;;;18.30;99.90;;;;;;4992193;28;20431;-74
2022/08/06 02:18:57;;;;;;;3.07;2.77;;;18.30;99.90;;;;;;5009622;28;20581;-74
2022/08/06 02:21:24;;;;;;;5.20;3.10;;;18.20;99.90;;;;;;5009090;28;20424;-75
2022/08/06 02:23:51;;;;;;;9.93;2.60;;;18.20;99.90;;;;;;5009094;28;20925;-74
2022/08/06 02:26:18;;;;;;;3.10;2.70;;;18.20;99.90;;;;;;5009041;28;20428;-74
2022/08/06 02:28:46;;;;;;;4.03;2.20;;;18.20;99.90;;;;;;5008850;28;20424;-75
2022/08/06 02:31:12;;;;;;;2.77;2.57;;;18.10;99.90;;;;;;4991009;28;20451;-74
2022/08/06 02:33:38;;;;;;;2.90;2.67;;;18.20;99.90;;;;;;4991376;28;20869;-75
2022/08/06 02:36:18;;;;;;;3.27;2.60;;;18.10;99.90;;;;;;4991186;28;20626;-74
2022/08/06 02:39:05;;;;;;;2.43;2.23;;;18.10;99.90;;;;;;5008837;28;20187;-75
2022/08/06 02:41:51;;;;;;;2.87;2.47;;;18.10;99.90;;;;;;5008814;28;20520;-75
2022/08/06 02:44:27;;;;;;;5.87;2.93;;;18.10;99.90;;;;;;5008939;28;20494;-74
2022/08/06 02:47:01;;;;;;;4.23;2.70;;;18.10;99.90;;;;;;5009294;28;20478;-75
2022/08/06 02:49:30;;;;;;;10.33;2.90;;;18.10;99.90;;;;;;5008706;28;20530;-74
2022/08/06 02:52:00;;;;;;;4.57;2.97;;;18.10;99.90;;;;;;5008840;28;20798;-75
2022/08/06 02:54:39;;;;;;;6.03;3.50;;;18.10;99.90;;;;;;4990678;28;20431;-74
2022/08/06 02:57:08;;;;;;;3.33;2.57;;;18.10;99.90;;;;;;5008811;28;20404;-75
2022/08/06 02:59:39;;;;;;;2.83;2.50;;;18.10;99.90;;;;;;4991146;28;20949;-75
2022/08/06 03:02:09;;;;;;;5.17;2.53;;;18.10;99.90;;;;;;5008675;28;21000;-75
2022/08/06 03:04:40;;;;;;;5.10;2.50;;;18.10;99.90;;;;;;5008247;28;20538;-76
2022/08/06 03:07:08;;;;;;;3.50;2.60;;;18.10;99.90;;;;;;5008426;28;20429;-76
2022/08/06 03:09:36;;;;;;;5.27;2.60;;;18.10;99.90;;;;;;5008300;28;20831;-78
2022/08/06 03:12:03;;;;;;;2.90;2.37;;;18.10;99.90;;;;;;4974649;28;20452;-77
2022/08/06 03:14:32;;;;;;;2.03;1.60;;;18.10;99.90;;;;;;5008457;28;21289;-77
2022/08/06 03:16:58;;;;;;;3.57;1.80;;;18.10;99.90;;;;;;4991707;28;20462;-76
2022/08/06 03:19:28;;;;;;;2.90;2.57;;;18.10;99.90;;;;;;5007967;28;21063;-75
2022/08/06 03:21:55;;;;;;;3.57;2.17;;;18.10;99.90;;;;;;4990807;28;20431;-75
2022/08/06 03:24:23;;;;;;;2.20;2.00;;;18.00;99.90;;;;;;4974426;28;20497;-76
2022/08/06 03:26:50;;;;;;;2.93;2.50;;;18.00;99.90;;;;;;5008646;28;20432;-76
2022/08/06 03:29:16;;;;;;;6.33;2.50;;;18.10;99.90;;;;;;4974364;28;20526;-76
2022/08/06 03:31:43;;;;;;;2.70;1.77;;;18.00;99.90;;;;;;4990750;28;20431;-77
2022/08/06 03:34:10;;;;;;;4.03;2.50;;;18.00;99.90;;;;;;4990599;28;20814;-75
2022/08/06 03:36:37;;;;;;;2.50;1.77;;;18.00;99.90;;;;;;4990310;28;20527;-75
2022/08/06 03:39:06;;;;;;;8.10;2.57;;;17.90;99.90;;;;;;4990219;28;21023;-75
2022/08/06 03:41:35;;;;;;;2.40;2.00;;;17.90;99.90;;;;;;4974207;28;20484;-75
2022/08/06 03:44:02;;;;;;;2.20;2.00;;;17.90;99.90;;;;;;5007775;28;20511;-75
2022/08/06 03:46:44;;;;;;;2.70;1.80;;;17.90;99.90;;;;;;5008423;28;20424;-75
2022/08/06 03:49:18;;;;;;;8.13;2.10;;;17.90;99.90;;;;;;4990249;28;20972;-75
2022/08/06 03:51:46;;;;;;;5.60;2.70;;;17.90;99.90;;;;;;5008388;28;20416;-76
2022/08/06 03:54:15;;;;;;;7.80;1.80;;;17.80;99.90;;;;;;5009516;28;20492;-77
2022/08/06 03:56:44;;;;;;;2.20;1.93;;;17.80;99.90;;;;;;5008306;28;20493;-75
2022/08/06 03:59:13;;;;;;;3.23;1.83;;;17.80;99.90;;;;;;5007491;28;20638;-75
2022/08/06 04:01:41;;;;;;;5.70;2.20;;;17.80;99.90;;;;;;5008259;28;20429;-75
2022/08/06 04:04:09;;;;;;;3.87;2.10;;;17.90;99.90;;;;;;5008250;28;20468;-75
2022/08/06 04:06:35;;;;;;;3.17;1.80;;;17.90;99.90;;;;;;4974365;28;20442;-73
2022/08/06 04:09:04;;;;;;;5.80;1.90;;;17.90;99.90;;;;;;4973631;28;20458;-75
2022/08/06 04:11:31;;;;;;;3.30;1.87;;;17.90;99.90;;;;;;5008870;28;20426;-79
2022/08/06 04:13:58;;;;;;;1.70;1.47;;;17.80;99.90;;;;;;5008522;28;20418;-78
2022/08/06 04:16:25;;;;;;;3.57;2.03;;;17.90;99.90;;;;;;4990209;28;20430;-78
2022/08/06 04:18:55;;;;;;;2.57;1.50;;;17.80;99.90;;;;;;4974080;28;20928;-75
2022/08/06 04:21:24;;;;;;;4.73;2.50;;;17.90;99.90;;;;;;5010623;28;20422;-79
2022/08/06 04:23:51;;;;;;;2.50;1.90;;;17.90;99.90;;;;;;4991943;28;20448;-79
2022/08/06 04:26:22;;;;;;;1.70;1.60;;;17.90;99.90;;;;;;5014295;28;20453;-76
2022/08/06 04:28:50;;;;;;;3.90;1.90;;;17.90;99.90;;;;;;4994103;28;20455;-77
2022/08/06 04:31:17;;;;;;;3.50;2.23;;;17.90;99.90;;;;;;4998125;28;20428;-76
2022/08/06 04:33:44;;;;;;;2.20;1.97;;;17.90;99.90;;;;;;5010124;28;20422;-78
2022/08/06 04:36:10;;;;;;;10.03;1.93;;;17.90;99.90;;;;;;4993560;28;20517;-78
2022/08/06 04:38:36;;;;;;;1.80;1.70;;;17.90;99.90;;;;;;4976494;28;20446;-78
2022/08/06 04:41:02;;;;;;;3.70;2.50;;;17.90;99.90;;;;;;4979601;28;20435;-81
2022/08/06 04:43:29;;;;;;;2.30;1.87;;;17.90;99.90;;;;;;4979353;28;20463;-81
2022/08/06 04:45:56;;;;;;;3.60;2.37;;;17.90;99.90;;;;;;4980493;28;20573;-81
2022/08/06 04:48:23;;;;;;;3.90;1.90;;;17.90;99.90;;;;;;5013332;28;20420;-78
2022/08/06 04:50:49;;;;;;;2.20;2.00;;;17.90;99.90;;;;;;4991326;28;20455;-79
2022/08/06 04:53:16;;;;;;;4.77;2.10;;;17.90;99.90;;;;;;4991054;28;20481;-79
2022/08/06 04:55:44;;;;;;;3.10;1.90;;;17.90;99.90;;;;;;5011453;28;20443;-78
2022/08/06 04:58:12;;;;;;;5.60;2.07;;;17.90;99.90;;;;;;5012151;28;20450;-78
2022/08/06 05:00:47;;;;;;;1.70;1.43;;;17.90;99.90;;;;;;4994132;28;20460;-77
2022/08/06 05:03:14;;;;;;;3.87;1.87;;;17.90;99.90;;;;;;5011401;28;20943;-78
2022/08/06 05:05:50;;;;;;;2.60;1.90;;;17.90;99.90;;;;;;5011073;28;20866;-78
2022/08/06 05:08:20;;;;;;;3.20;1.83;;;18.00;99.90;;;;;;5011338;28;20450;-78
2022/08/06 05:11:00;;;;;;;4.30;1.80;;;17.90;99.90;;;;;;4993311;28;20451;-77
2022/08/06 05:13:33;;;;;;;3.43;1.60;;;17.90;99.90;;;;;;5011000;28;20791;-76
2022/08/06 05:16:03;;;;;;;2.13;1.67;;;18.00;99.90;;;;;;4993133;28;20424;-78
2022/08/06 05:18:36;;;;;;;5.13;1.80;;;18.00;99.90;;;;;;4993172;28;20432;-76
2022/08/06 05:21:03;;;;;;;3.73;1.90;;;18.10;99.90;;;;;;4992795;28;20439;-77
2022/08/06 05:23:49;;;;;;;5.40;1.90;;;18.10;99.90;;;;;;4993147;28;20959;-77
2022/08/06 05:26:15;;;;;;;1.63;1.20;;;18.30;99.90;;;;;;4993279;28;20419;-76
2022/08/06 05:28:41;;;;;;;5.43;1.50;;;18.50;99.90;;;;;;5010086;28;20420;-75
2022/08/06 05:31:08;;;;;;;1.83;1.57;;;18.60;99.90;;;;;;4992498;28;20424;-74
2022/08/06 05:33:38;;;;;;;3.87;1.70;;;18.60;99.90;;;;;;4992440;28;21131;-74
2022/08/06 05:36:08;;;;;;;2.87;1.90;;;18.60;99.90;;;;;;5010378;28;20419;-74
2022/08/06 05:38:39;;;;;;;9.63;1.83;;;18.50;99.90;;;;;;5010838;28;20443;-74
2022/08/06 05:41:10;;;;;;;1.80;1.43;;;18.60;99.90;;;;;;4993523;28;20440;-75
2022/08/06 05:43:37;;;;;;;4.67;1.90;;;18.50;99.90;;;;;;5010491;28;20415;-74
2022/08/06 05:46:09;;;;;;;1.87;1.70;;;18.60;99.90;;;;;;5010632;28;20511;-76
2022/08/06 05:48:42;;;;;;;2.97;1.77;;;18.60;99.90;;;;;;5010405;28;20470;-75
2022/08/06 05:51:18;;;;;;;2.43;1.77;;;18.50;99.90;;;;;;5010615;28;20408;-74
2022/08/06 05:53:53;;;;;;;3.23;2.33;;;18.50;99.90;;;;;;4992730;28;20411;-74
2022/08/06 05:56:29;;;;;;;3.97;1.83;;;18.50;99.90;;;;;;4993925;28;20460;-75
2022/08/06 05:58:59;;;;;;;2.10;1.90;;;18.50;99.90;;;;;;5011382;28;20439;-75
2022/08/06 06:01:26;;;;;;;3.23;1.80;;;18.50;99.90;;;;;;4993719;28;20420;-76
2022/08/06 06:03:53;;;;;;;4.00;1.97;;;18.70;99.90;;;;;;4992597;28;20432;-75
2022/08/06 06:06:21;;;;;;;3.20;1.80;;;18.80;99.90;;;;;;5009960;28;20514;-75
2022/08/06 06:08:47;;;;;;;3.30;1.70;;;18.80;99.90;;;;;;4992692;28;20894;-75
2022/08/06 06:11:13;;;;;;;4.33;1.63;;;19.00;99.90;;;;;;4976284;28;20490;-74
2022/08/06 06:13:41;;;;;;;3.03;1.83;;;19.10;99.90;;;;;;4992803;28;20203;-75
2022/08/06 06:17:01;;;;;;;3.43;1.90;;;19.20;99.90;;;;;;5009962;28;20419;-76
2022/08/06 06:19:39;;;;;;;5.03;2.20;;;19.20;99.90;;;;;;4949075;29;20512;-75
2022/08/06 06:22:21;;;;;;;4.60;2.40;;;19.20;99.90;;;;;;4985057;28;20439;-76
2022/08/06 06:24:54;;;;;;;2.87;2.00;;;19.20;99.90;;;;;;5010068;28;20562;-74
2022/08/06 06:27:53;;;;;;;2.53;1.83;;;19.20;99.90;;;;;;5009882;28;20404;-75
2022/08/06 06:30:25;;;;;;;3.73;2.50;;;19.20;99.90;;;;;;5010060;28;20432;-75
2022/08/06 06:33:14;;;;;;;3.33;2.00;;;19.20;99.90;;;;;;5010052;28;20400;-74
2022/08/06 06:35:53;;;;;;;4.63;1.83;;;19.20;99.90;;;;;;5010805;28;20890;-74
2022/08/06 06:38:31;;;;;;;5.30;1.80;;;19.30;99.90;;;;;;4992771;28;20448;-74
2022/08/06 06:41:08;;;;;;;2.70;1.90;;;19.30;99.90;;;;;;5010658;28;20404;-74
2022/08/06 06:43:40;;;;;;;3.97;2.10;;;19.30;99.90;;;;;;5010462;28;20515;-74
2022/08/06 06:46:42;;;;;;;4.87;2.10;;;19.40;99.90;;;;;;5010300;28;20493;-76
2022/08/06 06:49:21;;;;;;;4.07;2.30;;;19.40;99.90;;;;;;5010987;28;20470;-75
2022/08/06 06:51:53;;;;;;;2.80;2.10;;;19.50;99.90;;;;;;4993016;28;20427;-74
2022/08/06 06:54:31;;;;;;;4.33;2.00;;;19.50;99.90;;;;;;5010564;28;20401;-74
2022/08/06 06:56:59;;;;;;;3.73;2.43;;;19.60;99.90;;;;;;5010557;28;20404;-75
2022/08/06 06:59:32;;;;;;;2.60;2.37;;;19.70;99.90;;;;;;5010048;28;20509;-75
2022/08/06 07:01:58;;;;;;;3.20;2.03;;;19.70;99.90;;;;;;5010439;28;20419;-75
2022/08/06 07:04:26;;;;;;;4.33;2.50;;;19.70;99.90;;;;;;4992603;28;20464;-74
2022/08/06 07:06:55;;;;;;;3.63;2.10;;;19.70;99.90;;;;;;4976012;28;20442;-75
2022/08/06 07:09:23;;;;;;;3.50;2.60;;;19.80;99.90;;;;;;5009906;28;21036;-74
2022/08/06 07:11:51;;;;;;;4.30;2.33;;;19.80;99.90;;;;;;5009794;28;20441;-74
2022/08/06 07:14:20;;;;;;;3.43;1.70;;;19.80;99.90;;;;;;4992644;28;20442;-75
2022/08/06 07:16:46;;;;;;;2.13;1.93;;;19.90;99.90;;;;;;4991801;28;20860;-75
2022/08/06 07:19:12;;;;;;;5.53;2.97;;;20.00;99.90;;;;;;4991291;28;20447;-75
2022/08/06 07:21:40;;;;;;;3.90;2.33;;;20.10;99.90;;;;;;5009469;28;20431;-75
2022/08/06 07:24:08;;;;;;;5.73;2.60;;;20.10;99.90;;;;;;5009444;28;20448;-74
2022/08/06 07:26:35;;;;;;;4.40;2.37;;;20.10;99.90;;;;;;4991517;28;20878;-74
2022/08/06 07:29:02;;;;;;;5.77;2.50;;;20.30;99.90;;;;;;5009203;28;20440;-74
2022/08/06 07:31:29;;;;;;;4.87;2.60;;;20.30;99.90;;;;;;4991461;28;20420;-73
2022/08/06 07:33:56;;;;;;;3.70;2.90;;;20.30;99.90;;;;;;5008968;28;20440;-75
2022/08/06 07:36:23;;;;;;;4.80;2.27;;;20.10;99.90;;;;;;5008982;28;20424;-74
2022/08/06 07:38:52;;;;;;;2.77;2.20;;;20.20;99.90;;;;;;4991044;28;20444;-74
2022/08/06 07:41:18;;;;;;;8.10;2.30;;;20.30;99.90;;;;;;5009737;28;20416;-75
2022/08/06 07:43:53;;;;;;;2.93;2.27;;;20.30;99.90;;;;;;5008754;28;20501;-75
2022/08/06 07:46:22;;;;;;;2.80;2.20;;;20.40;99.90;;;;;;4990922;28;20432;-75
2022/08/06 07:48:52;;;;;;;3.83;1.80;;;20.30;99.90;;;;;;5008392;28;20952;-74
2022/08/06 07:51:22;;;;;;;2.73;2.53;;;20.40;99.90;;;;;;5008309;28;20408;-75
2022/08/06 07:53:49;;;;;;;4.43;2.73;;;20.50;99.90;;;;;;4991290;28;20427;-74
2022/08/06 07:56:16;;;;;;;3.73;2.70;;;20.60;99.90;;;;;;4990492;28;20420;-75
2022/08/06 07:58:43;;;;;;;5.37;2.27;;;20.60;99.90;;;;;;5007917;28;20447;-75
2022/08/06 08:01:09;;;;;;;4.83;2.80;;;20.70;99.90;;;;;;5007829;28;21234;-76
2022/08/06 08:06:25;;;;;;;3.77;2.30;;;20.60;99.90;;;;;;4970349;28;20436;-75
2022/08/06 08:08:54;;;;;;;6.10;2.40;;;20.70;99.90;;;;;;5007772;28;20484;-74
2022/08/06 08:11:23;;;;;;;4.10;2.73;;;20.90;99.90;;;;;;4990188;28;20761;-74
2022/08/06 08:13:53;;;;;;;3.60;2.20;;;20.80;99.90;;;;;;5008277;28;21250;-75
2022/08/06 08:16:19;;;;;;;4.80;2.80;;;21.00;99.90;;;;;;5008297;28;20419;-76
2022/08/06 08:18:45;;;;;;;5.43;2.77;;;20.90;99.90;;;;;;5008326;28;21052;-74
2022/08/06 08:21:11;;;;;;;5.93;2.67;;;21.00;99.90;;;;;;5008257;28;20429;-75
2022/08/06 08:23:40;;;;;;;3.20;2.20;;;21.10;99.90;;;;;;5008271;28;20424;-75
2022/08/06 08:26:06;;;;;;;9.00;3.53;;;21.20;99.90;;;;;;5008057;28;20539;-75
2022/08/06 08:28:31;;;;;;;4.80;2.40;;;21.40;99.90;;;;;;5008441;28;20948;-75
2022/08/06 08:31:05;;;;;;;3.60;2.40;;;21.50;99.90;;;;;;5012329;28;20224;-75
2022/08/06 08:33:32;;;;;;;5.87;2.90;;;21.50;99.90;;;;;;5012171;28;20256;-75
2022/08/06 08:35:58;;;;;;;5.67;3.00;;;21.30;99.90;;;;;;5012341;28;20774;-76
2022/08/06 08:38:24;;;;;;;3.70;2.57;;;21.20;99.90;;;;;;5012107;28;20428;-76
2022/08/06 08:40:51;;;;;;;3.67;2.50;;;21.30;99.90;;;;;;5012331;28;20446;-76
2022/08/06 08:43:22;;;;;;;4.80;2.50;;;21.40;99.90;;;;;;5012424;28;20785;-74
2022/08/06 08:45:50;;;;;;;8.23;2.20;;;21.50;99.90;;;;;;5012204;28;20469;-75
2022/08/06 08:48:23;;;;;;;4.67;2.50;;;21.50;99.90;;;;;;5012163;28;20427;-76
2022/08/06 08:50:49;;;;;;;5.33;3.07;;;21.60;99.90;;;;;;5012330;28;20472;-75
2022/08/06 08:53:27;;;;;;;5.07;2.87;;;21.60;99.90;;;;;;5012093;28;20441;-74
2022/08/06 08:55:53;;;;;;;5.33;2.70;;;21.60;99.90;;;;;;5012384;28;20405;-75
2022/08/06 08:58:19;;;;;;;9.60;2.43;;;21.80;99.90;;;;;;5012264;28;20417;-75
2022/08/06 09:00:45;;;;;;;4.00;2.80;;;21.80;99.90;;;;;;4994178;28;20456;-75
2022/08/06 09:03:11;;;;;;;3.10;2.83;;;21.80;99.90;;;;;;4993723;28;20935;-75
2022/08/06 09:05:37;;;;;;;9.30;2.63;;;21.70;99.90;;;;;;4993508;28;20213;-75
2022/08/06 09:08:03;;;;;;;5.63;2.40;;;21.60;99.90;;;;;;5011156;28;20574;-74
2022/08/06 09:10:30;;;;;;;4.80;2.30;;;21.70;99.90;;;;;;5010641;28;20205;-75
2022/08/06 09:12:56;;;;;;;6.30;2.07;;;21.90;99.90;;;;;;5010712;28;20415;-75
2022/08/06 09:15:22;;;;;;;4.53;3.33;;;22.20;99.90;;;;;;5010856;28;20422;-74
2022/08/06 09:17:48;;;;;;;2.43;2.03;;;22.10;99.90;;;;;;5010858;28;20434;-74
2022/08/06 09:20:13;;;;;;;5.50;2.80;;;22.60;99.90;;;;;;5010568;28;20204;-74
2022/08/06 09:22:39;;;;;;;4.10;2.10;;;22.90;99.70;;;;;;5010634;28;20517;-73
2022/08/06 09:25:05;;;;;;;4.23;2.30;;;23.20;98.70;;;;;;5010632;28;20582;-74
2022/08/06 09:27:35;;;;;;;4.00;2.67;;;23.50;99.20;;;;;;4994004;28;20194;-74
2022/08/06 09:30:04;;;;;;;4.90;2.37;;;23.60;97.50;;;;;;5010579;28;20563;-75
2022/08/06 09:32:45;;;;;;;3.23;2.20;;;23.70;98.00;;;;;;4992573;28;20434;-75
2022/08/06 09:35:24;;;;;;;4.70;2.73;;;23.80;96.70;;;;;;5010347;28;20874;-75
2022/08/06 09:37:59;;;;;;;14.43;2.40;;;24.00;96.10;;;;;;5010202;28;20518;-75
2022/08/06 09:40:25;;;;;;;4.10;2.63;;;24.10;95.00;;;;;;5009290;28;20542;-75
2022/08/06 09:42:52;;;;;;;4.37;2.67;;;24.50;94.20;;;;;;4992420;28;20534;-75
2022/08/06 09:45:20;;;;;;;3.20;2.70;;;24.60;94.10;;;;;;5010048;28;20212;-75
2022/08/06 09:47:47;;;;;;;4.90;1.70;;;24.80;93.90;;;;;;5010028;28;20434;-74
2022/08/06 09:50:13;;;;;;;4.10;2.67;;;24.80;93.00;;;;;;5009787;28;21331;-75
2022/08/06 09:52:39;;;;;;;11.73;2.90;;;24.50;93.00;;;;;;4991910;28;20509;-75
2022/08/06 09:55:05;;;;;;;11.10;2.70;;;24.20;92.80;;;;;;5009635;28;20467;-74
2022/08/06 09:57:45;;;;;;;4.47;2.30;;;23.80;94.00;;;;;;4975854;28;20224;-74
2022/08/06 10:00:24;;;;;;;8.40;2.60;;;23.60;95.20;;;;;;5009631;28;20516;-75
2022/08/06 10:02:54;;;;;;;4.93;2.60;;;23.50;94.00;;;;;;4977214;28;20446;-74
2022/08/06 10:05:23;;;;;;;3.60;2.13;;;23.60;94.40;;;;;;5009403;28;20518;-74
2022/08/06 10:08:07;;;;;;;4.63;3.13;;;23.80;93.90;;;;;;4991639;28;20461;-74
2022/08/06 10:10:51;;;;;;;4.00;3.10;;;23.40;93.70;;;;;;5009454;28;20450;-74
2022/08/06 10:13:24;;;;;;;4.57;2.40;;;23.20;96.20;;;;;;5009205;28;20469;-74
2022/08/06 10:15:55;;;;;;;3.27;2.47;;;23.30;96.40;;;;;;4991866;28;20429;-74
2022/08/06 10:18:48;;;;;;;2.20;1.87;;;23.30;95.70;;;;;;4991437;28;20943;-75
2022/08/06 10:21:17;;;;;;;2.83;1.67;;;23.60;96.50;;;;;;5009419;28;20419;-74
2022/08/06 10:23:48;;;;;;;2.20;2.00;;;23.90;94.80;;;;;;4991390;28;20428;-74
2022/08/06 10:26:18;;;;;;;4.10;2.30;;;24.20;94.80;;;;;;5009060;28;20473;-74
2022/08/06 10:28:50;;;;;;;2.63;2.00;;;24.80;93.40;;;;;;5008977;28;20790;-75
2022/08/06 10:31:17;;;;;;;4.60;2.43;;;25.30;91.00;;;;;;5009290;28;20933;-76
2022/08/06 10:33:54;;;;;;;4.30;2.20;;;25.30;90.90;;;;;;4991237;28;20985;-76
2022/08/06 10:36:25;;;;;;;6.53;1.87;;;25.00;90.10;;;;;;5008821;28;20429;-76
2022/08/06 10:38:53;;;;;;;2.47;1.50;;;24.60;91.70;;;;;;4990990;28;20806;-76
2022/08/06 10:41:20;;;;;;;4.40;1.77;;;24.40;91.40;;;;;;5008763;28;20521;-75
2022/08/06 10:43:47;;;;;;;4.07;1.70;;;24.20;91.10;;;;;;4991268;28;20454;-76
2022/08/06 10:46:15;;;;;;;3.67;1.40;;;24.10;90.90;;;;;;4991046;28;20511;-75
2022/08/06 10:48:43;;;;;;;2.23;1.90;;;24.00;90.60;;;;;;5008832;28;20427;-74
2022/08/06 10:51:10;;;;;;;4.13;1.90;;;24.00;90.60;;;;;;4990814;28;20925;-74
2022/08/06 10:53:38;;;;;;;3.30;1.40;;;24.00;90.60;;;;;;4991160;28;20527;-74
2022/08/06 10:56:06;;;;;;;2.90;1.70;;;24.10;91.60;;;;;;4990943;28;20435;-75
2022/08/06 10:58:33;;;;;;;3.70;2.10;;;24.00;90.60;;;;;;5008618;28;20436;-74
2022/08/06 11:01:02;;;;;;;2.13;1.70;;;23.90;87.10;;;;;;5008739;28;20420;-75
2022/08/06 11:03:37;;;;;;;2.90;1.80;;;23.80;88.90;;;;;;5009251;28;20435;-73
2022/08/06 11:06:30;;;;;;;6.67;2.50;;;23.50;89.80;;;;;;5010129;28;20656;-74
2022/08/06 11:09:26;;;;;;;3.53;1.77;;;23.60;90.00;;;;;;5008623;28;20450;-75
2022/08/06 11:12:34;;;;;;;4.33;1.73;;;23.50;89.60;;;;;;4991760;28;20511;-74
2022/08/06 11:15:00;;;;;;;3.90;1.40;;;23.50;90.40;;;;;;4990507;28;20426;-75
2022/08/06 11:17:45;;;;;;;3.87;1.80;;;23.40;89.60;;;;;;5008398;28;20434;-75
2022/08/06 11:20:39;;;;;;;3.07;1.50;;;23.50;87.30;;;;;;5008330;28;20448;-74
2022/08/06 11:23:22;;;;;;;3.43;1.47;;;24.00;90.10;;;;;;4990384;28;20424;-75
2022/08/06 11:25:50;;;;;;;2.10;1.43;;;24.90;85.60;;;;;;5008067;28;20460;-75
2022/08/06 11:28:18;;;;;;;5.63;1.47;;;25.40;82.60;;;;;;5007834;28;20504;-75
2022/08/06 11:30:53;;;;;;;3.03;1.63;;;25.50;81.90;;;;;;4990169;28;20459;-74
2022/08/06 11:33:31;;;;;;;2.63;1.83;;;26.00;80.80;;;;;;5007894;28;20412;-75
2022/08/06 11:35:57;;;;;;;2.73;1.30;;;26.20;77.40;;;;;;5008066;28;20736;-75
2022/08/06 11:38:42;;;;;;;4.43;1.90;;;26.30;79.30;;;;;;4990190;28;20470;-75
2022/08/06 11:41:10;;;;;;;2.60;1.27;;;26.00;76.20;;;;;;4990489;28;20544;-75
2022/08/06 11:43:47;;;;;;;5.00;1.70;;;26.30;77.70;;;;;;5008294;28;20534;-75
2022/08/06 11:46:31;;;;;;;3.63;1.43;;;26.70;77.50;;;;;;5008259;28;21332;-74
2022/08/06 11:49:02;;;;;;;9.50;1.60;;;26.70;73.30;;;;;;5008169;28;20440;-74
2022/08/06 11:51:43;;;;;;;5.43;1.40;;;27.00;75.50;;;;;;5007733;28;20986;-75
2022/08/06 11:54:15;;;;;;;2.03;1.50;;;27.00;71.50;;;;;;5008169;28;20411;-75
2022/08/06 11:57:07;;;;;;;1.93;1.20;;;26.50;70.60;;;;;;4989863;28;20453;-75
2022/08/06 11:59:58;;;;;;;5.87;1.20;;;26.60;73.60;;;;;;5000626;28;20535;-75
2022/08/06 12:02:42;;;;;;;2.23;1.17;;;26.90;71.60;;;;;;5004430;28;21003;-75
2022/08/06 12:05:14;;;;;;;6.40;1.30;;;27.20;69.30;;;;;;5006991;28;20483;-75
2022/08/06 12:07:44;;;;;;;4.47;1.60;;;27.40;70.00;;;;;;5007524;28;20411;-75
2022/08/06 12:10:13;;;;;;;2.03;1.50;;;27.50;70.60;;;;;;5007399;28;21087;-75
2022/08/06 12:12:46;;;;;;;5.73;1.70;;;27.80;69.60;;;;;;4989644;28;20434;-75
2022/08/06 12:15:12;;;;;;;3.30;1.43;;;28.00;67.30;;;;;;5007599;28;20412;-75
2022/08/06 12:17:57;;;;;;;2.50;1.40;;;28.30;67.20;;;;;;5007400;28;20913;-75
2022/08/06 12:20:37;;;;;;;2.27;1.27;;;28.20;65.80;;;;;;5007587;28;20197;-75
2022/08/06 12:23:04;;;;;;;2.13;1.30;;;28.40;64.90;;;;;;5007498;28;20412;-76
2022/08/06 12:25:34;;;;;;;3.20;1.37;;;28.00;64.40;;;;;;5007456;28;20468;-75
2022/08/06 12:28:00;;;;;;;5.53;1.43;;;27.30;62.70;;;;;;5007485;28;20425;-75
2022/08/06 12:30:26;;;;;;;1.93;1.13;;;27.40;68.10;;;;;;5007549;28;21293;-75
2022/08/06 12:33:00;;;;;;;1.87;1.50;;;27.30;65.40;;;;;;5007392;28;20261;-75
2022/08/06 12:35:26;;;;;;;1.87;1.00;;;27.20;64.10;;;;;;5007364;28;20489;-75
2022/08/06 12:37:52;;;;;;;5.33;1.37;;;27.00;65.10;;;;;;5007324;28;20460;-75
2022/08/06 12:40:28;;;;;;;2.37;1.17;;;27.60;66.50;;;;;;4989288;28;20459;-76
2022/08/06 12:43:01;;;;;;;5.13;1.30;;;27.70;65.70;;;;;;5007657;28;20910;-75
2022/08/06 12:45:29;;;;;;;4.07;1.50;;;27.80;65.30;;;;;;5007509;28;20467;-75
2022/08/06 12:48:10;;;;;;;2.33;1.70;;;27.80;65.60;;;;;;5007446;28;20527;-76
2022/08/06 12:50:38;;;;;;;2.40;1.83;;;28.00;64.70;;;;;;4989308;28;20476;-75
2022/08/06 12:53:16;;;;;;;2.50;1.67;;;27.60;65.90;;;;;;4989625;28;20422;-75
2022/08/06 12:55:44;;;;;;;3.17;1.20;;;27.00;64.20;;;;;;5007269;28;20404;-75
2022/08/06 12:58:11;;;;;;;3.90;1.50;;;26.70;67.40;;;;;;5007420;28;20415;-75
2022/08/06 13:00:39;;;;;;;4.33;1.30;;;26.60;67.90;;;;;;4990847;28;20469;-75
2022/08/06 13:03:07;;;;;;;5.73;1.80;;;26.40;68.10;;;;;;5008068;28;20498;-76
2022/08/06 13:05:34;;;;;;;7.73;1.70;;;26.30;67.50;;;;;;4989752;28;20482;-76
2022/08/06 13:08:00;;;;;;;4.27;1.47;;;26.20;68.30;;;;;;4989592;28;20481;-75